Time;durP1;ratioP1;P1;durP2;ratioP2;P2;SDS_P1;SDS_P2;PMS_P1;PMS_P2;Temp;Humidity;BMP_temperature;BMP_pressure;BME280_temperature;BME280_humidity;BME280_pressure;Samples;Min_cycle;Max_cycle;Signal;HPM_P1;HPM_P2
2022/08/17 00:00:16;;;;;;;9.17;7.33;;;;;;;22.29;63.90;96614.59;6333263;22;20247;-73
2022/08/17 00:03:15;;;;;;;10.03;7.33;;;;;;;22.02;64.48;96615.53;6310637;22;20161;-73
2022/08/17 00:05:48;;;;;;;7.97;7.00;;;;;;;22.03;65.05;96614.53;6331106;22;20169;-73
2022/08/17 00:08:16;;;;;;;8.80;7.43;;;;;;;22.22;64.54;96611.75;6333738;22;20247;-73
2022/08/17 00:10:44;;;;;;;8.70;7.23;;;;;;;22.46;63.46;96619.84;6331439;22;20164;-73
2022/08/17 00:13:26;;;;;;;9.23;7.60;;;;;;;22.52;63.37;96611.31;6333257;22;20165;-72
2022/08/17 00:16:01;;;;;;;9.20;7.20;;;;;;;22.60;63.36;96598.25;6333074;22;20197;-72
2022/08/17 00:18:30;;;;;;;9.53;6.37;;;;;;;22.67;62.89;96608.97;6331263;22;20196;-73
2022/08/17 00:21:20;;;;;;;10.20;7.57;;;;;;;22.63;63.20;96605.84;6333664;22;20170;-73
2022/08/17 00:23:51;;;;;;;9.70;7.90;;;;;;;22.38;63.95;96593.41;6332238;22;20693;-73
2022/08/17 00:26:19;;;;;;;8.43;7.53;;;;;;;22.00;65.23;96598.19;6303967;22;20527;-72
2022/08/17 00:29:07;;;;;;;8.80;7.30;;;;;;;21.96;65.47;96586.28;6279900;22;20663;-73
2022/08/17 00:31:35;;;;;;;11.00;7.30;;;;;;;22.12;65.19;96597.81;6331337;22;20218;-72
2022/08/17 00:34:04;;;;;;;10.43;7.33;;;;;;;22.25;64.99;96603.53;6333045;22;20608;-74
2022/08/17 00:36:32;;;;;;;10.10;7.00;;;;;;;22.21;64.02;96570.53;6256058;22;20195;-72
2022/08/17 00:39:02;;;;;;;8.70;7.07;;;;;;;22.40;64.37;96601.19;6304942;22;20173;-77
2022/08/17 00:41:29;;;;;;;10.93;8.30;;;;;;;22.07;65.13;96610.63;6333050;22;20170;-73
2022/08/17 00:44:00;;;;;;;10.70;8.43;;;;;;;21.61;66.88;96608.16;6331326;22;20172;-73
2022/08/17 00:46:35;;;;;;;9.83;8.37;;;;;;;21.30;67.90;96594.47;6332510;22;20252;-72
2022/08/17 00:49:04;;;;;;;11.03;8.10;;;;;;;21.01;69.02;96602.47;6303872;22;20491;-73
2022/08/17 00:51:36;;;;;;;10.77;8.30;;;;;;;20.87;69.64;96597.69;6332842;22;20197;-73
2022/08/17 00:54:06;;;;;;;9.70;8.40;;;;;;;20.84;69.97;96597.13;6332149;22;20164;-72
2022/08/17 00:56:37;;;;;;;11.97;8.37;;;;;;;20.84;69.71;96587.41;6331989;22;20221;-72
2022/08/17 00:59:07;;;;;;;12.60;8.87;;;;;;;20.83;70.01;96598.09;6332806;22;20159;-72
2022/08/17 01:01:36;;;;;;;11.03;8.57;;;;;;;21.01;69.46;96602.47;6303503;22;20170;-72
2022/08/17 01:04:05;;;;;;;9.63;8.63;;;;;;;21.26;68.59;96600.16;6332685;22;20163;-73
2022/08/17 01:06:32;;;;;;;10.50;9.10;;;;;;;21.22;68.78;96611.97;6278488;22;20540;-73
2022/08/17 01:09:03;;;;;;;10.33;7.70;;;;;;;20.94;69.90;96604.00;6332944;22;20245;-73
2022/08/17 01:11:31;;;;;;;18.93;8.77;;;;;;;20.88;70.20;96604.59;6332033;22;20167;-72
2022/08/17 01:13:59;;;;;;;11.20;9.03;;;;;;;20.93;69.80;96605.00;6304200;22;20265;-74
2022/08/17 01:16:29;;;;;;;11.73;7.97;;;;;;;20.69;70.32;96594.09;6333020;22;20171;-73
2022/08/17 01:19:03;;;;;;;12.47;8.90;;;;;;;20.76;70.29;96604.91;6303466;22;20261;-71
2022/08/17 01:21:40;;;;;;;9.97;8.30;;;;;;;20.80;70.28;96607.09;6333108;22;20165;-72
2022/08/17 01:24:07;;;;;;;10.17;8.77;;;;;;;20.76;70.27;96600.47;6331701;22;20177;-72
2022/08/17 01:26:35;;;;;;;12.23;8.80;;;;;;;20.86;69.82;96600.44;6332047;22;20167;-72
2022/08/17 01:29:04;;;;;;;9.67;8.20;;;;;;;20.96;69.53;96602.06;6332465;22;20173;-72
2022/08/17 01:31:37;;;;;;;10.17;8.80;;;;;;;20.91;69.51;96603.47;6173262;23;20174;-72
2022/08/17 01:34:09;;;;;;;12.30;8.20;;;;;;;20.98;69.17;96610.66;6332332;22;20236;-72
2022/08/17 01:36:39;;;;;;;11.17;8.03;;;;;;;20.95;68.84;96600.41;6330203;22;20203;-73
2022/08/17 01:39:14;;;;;;;12.70;8.70;;;;;;;20.97;68.67;96598.47;6332335;22;20194;-73
2022/08/17 01:41:45;;;;;;;10.97;8.13;;;;;;;20.94;68.62;96588.22;6332239;22;20260;-72
2022/08/17 01:44:14;;;;;;;12.90;8.53;;;;;;;20.97;68.43;96593.19;6331095;22;20566;-72
2022/08/17 01:46:41;;;;;;;9.53;8.07;;;;;;;20.98;68.06;96589.56;6332603;22;20564;-71
2022/08/17 01:49:10;;;;;;;9.93;7.80;;;;;;;21.09;67.25;96583.34;6302873;22;20229;-71
2022/08/17 01:51:37;;;;;;;9.87;8.27;;;;;;;21.07;67.27;96587.91;6332686;22;20171;-70
2022/08/17 01:54:12;;;;;;;9.50;8.37;;;;;;;21.09;67.27;96585.97;6331217;22;20164;-72
2022/08/17 01:56:42;;;;;;;10.37;8.20;;;;;;;21.12;66.99;96582.22;6332287;22;20162;-72
2022/08/17 01:59:14;;;;;;;11.43;8.80;;;;;;;21.27;66.00;96593.94;6332686;22;20622;-76
2022/08/17 02:01:42;;;;;;;10.63;7.70;;;;;;;21.20;65.38;96569.97;6330444;22;20538;-76
2022/08/17 02:04:10;;;;;;;8.10;7.10;;;;;;;21.36;64.90;96587.78;6332286;22;20197;-75
2022/08/17 02:06:42;;;;;;;9.83;7.60;;;;;;;21.48;64.52;96586.59;6331172;22;20175;-75
2022/08/17 02:09:12;;;;;;;8.00;7.23;;;;;;;21.53;63.96;96594.88;6332478;22;20496;-75
2022/08/17 02:11:44;;;;;;;8.63;7.30;;;;;;;21.73;63.40;96581.44;6331518;22;20685;-75
2022/08/17 02:14:12;;;;;;;9.13;8.17;;;;;;;21.88;62.72;96573.88;6331297;22;20160;-75
2022/08/17 02:16:40;;;;;;;9.33;7.80;;;;;;;21.85;63.08;96587.34;6332525;22;20517;-75
2022/08/17 02:19:12;;;;;;;9.27;8.23;;;;;;;21.60;63.77;96580.97;6330566;22;20726;-76
2022/08/17 02:21:42;;;;;;;8.67;7.60;;;;;;;21.53;63.90;96585.19;6332610;22;20212;-75
2022/08/17 02:24:11;;;;;;;9.70;8.03;;;;;;;21.65;64.17;96583.16;6332231;22;20163;-74
2022/08/17 02:26:38;;;;;;;8.83;7.40;;;;;;;21.68;63.97;96588.94;6332285;22;20237;-76
2022/08/17 02:29:06;;;;;;;8.23;7.40;;;;;;;21.78;63.89;96594.97;6304087;22;20168;-77
2022/08/17 02:31:34;;;;;;;8.40;7.37;;;;;;;21.85;63.84;96595.25;6303266;22;20182;-75
2022/08/17 02:34:02;;;;;;;11.10;8.07;;;;;;;21.94;63.45;96583.81;6332167;22;20639;-77
2022/08/17 02:36:34;;;;;;;8.90;7.37;;;;;;;21.92;63.52;96575.22;6257210;22;20610;-77
2022/08/17 02:39:04;;;;;;;10.30;8.20;;;;;;;21.72;64.05;96577.13;6174587;22;20194;-75
2022/08/17 02:41:32;;;;;;;10.57;8.47;;;;;;;21.37;65.01;96569.16;6173431;22;20164;-76
2022/08/17 02:44:01;;;;;;;9.57;8.53;;;;;;;21.20;65.38;96577.03;6331701;22;20165;-76
2022/08/17 02:46:29;;;;;;;9.67;8.40;;;;;;;21.06;65.90;96571.28;6304254;22;20168;-77
2022/08/17 02:48:58;;;;;;;9.80;7.90;;;;;;;21.22;64.83;96564.56;6330045;22;20188;-76
2022/08/17 02:51:25;;;;;;;9.43;8.43;;;;;;;21.25;64.58;96575.63;6331050;22;20163;-76
2022/08/17 02:53:52;;;;;;;9.63;8.40;;;;;;;21.06;65.24;96575.75;6302783;22;20782;-73
2022/08/17 02:56:39;;;;;;;11.50;8.23;;;;;;;20.94;65.30;96559.25;6174728;22;20163;-76
2022/08/17 02:59:07;;;;;;;10.50;8.67;;;;;;;20.82;66.05;96565.69;6330767;22;20194;-76
2022/08/17 03:01:34;;;;;;;11.00;8.40;;;;;;;20.98;65.58;96568.50;6331255;22;20213;-76
2022/08/17 03:04:01;;;;;;;9.50;8.40;;;;;;;21.12;65.38;96561.16;6332252;22;20163;-75
2022/08/17 03:06:29;;;;;;;9.57;8.57;;;;;;;21.27;65.19;96578.13;6330582;22;20163;-73
2022/08/17 03:08:56;;;;;;;9.57;8.37;;;;;;;21.41;64.25;96575.81;6332228;22;20171;-73
2022/08/17 03:11:23;;;;;;;7.80;6.93;;;;;;;21.36;64.19;96578.06;6330321;22;20197;-73
2022/08/17 03:13:50;;;;;;;10.33;7.53;;;;;;;21.36;64.24;96578.06;6332317;22;20182;-74
2022/08/17 03:16:17;;;;;;;8.70;7.30;;;;;;;21.45;64.09;96581.63;6330638;22;20634;-76
2022/08/17 03:18:45;;;;;;;10.47;7.77;;;;;;;21.50;64.04;96582.00;6330880;22;20191;-75
2022/08/17 03:21:12;;;;;;;11.73;8.50;;;;;;;21.28;65.08;96585.88;6303968;22;20171;-75
2022/08/17 03:23:40;;;;;;;12.40;9.00;;;;;;;21.01;66.06;96584.03;6331104;22;20170;-75
2022/08/17 03:26:09;;;;;;;10.60;9.00;;;;;;;20.72;66.66;96596.47;6304085;22;20641;-73
2022/08/17 03:28:41;;;;;;;12.50;9.67;;;;;;;20.50;67.49;96591.53;6330015;22;20597;-74
2022/08/17 03:31:13;;;;;;;10.60;8.50;;;;;;;20.43;67.63;96593.06;6331649;22;20163;-73
2022/08/17 03:33:40;;;;;;;12.03;8.73;;;;;;;20.25;67.86;96597.41;6331378;22;20164;-74
2022/08/17 03:36:08;;;;;;;11.57;7.77;;;;;;;20.30;67.60;96605.69;6282542;22;20198;-72
2022/08/17 03:38:35;;;;;;;8.80;7.40;;;;;;;20.33;67.20;96610.66;6174312;22;20256;-72
2022/08/17 03:41:05;;;;;;;8.17;7.27;;;;;;;20.30;67.33;96612.75;6330259;22;20167;-76
2022/08/17 03:43:33;;;;;;;10.50;7.97;;;;;;;20.43;67.16;96611.47;6331722;22;20170;-71
2022/08/17 03:57:21;;;;;;;8.47;7.53;;;;;;;21.11;64.21;96628.78;6330451;22;20163;-75
2022/08/17 03:59:48;;;;;;;12.20;7.47;;;;;;;21.08;64.09;96612.44;6331399;22;20649;-77
2022/08/17 04:02:22;;;;;;;12.27;7.50;;;;;;;21.21;63.70;96620.84;6304413;22;20163;-75
2022/08/17 04:04:49;;;;;;;9.57;7.63;;;;;;;21.44;62.84;96622.13;6175698;22;20229;-76
2022/08/17 04:07:22;;;;;;;8.33;7.00;;;;;;;21.67;62.67;96628.66;6331512;22;20164;-76
2022/08/17 04:09:49;;;;;;;9.93;8.13;;;;;;;21.88;61.83;96625.75;6306571;22;20221;-74
2022/08/17 04:12:18;;;;;;;9.73;8.07;;;;;;;21.96;61.92;96624.03;6332559;22;20217;-76
2022/08/17 04:14:46;;;;;;;10.67;7.77;;;;;;;22.06;61.84;96630.06;6331927;22;20160;-76
2022/08/17 04:17:23;;;;;;;9.90;8.00;;;;;;;22.53;60.78;96634.09;6333968;22;20165;-74
2022/08/17 04:19:51;;;;;;;9.13;7.80;;;;;;;22.71;59.06;96631.44;6331850;22;20638;-77
2022/08/17 04:22:24;;;;;;;9.17;7.63;;;;;;;22.66;58.72;96604.69;6336494;22;20172;-77
2022/08/17 04:25:16;;;;;;;8.97;7.90;;;;;;;22.88;58.84;96637.66;6337790;22;20160;-74
2022/08/17 04:27:43;;;;;;;11.73;8.33;;;;;;;22.20;60.85;96640.09;6333227;22;20168;-75
2022/08/17 04:30:11;;;;;;;11.67;8.60;;;;;;;21.98;62.10;96637.91;6333565;22;20253;-72
2022/08/17 04:32:59;;;;;;;9.53;7.93;;;;;;;22.17;61.11;96648.31;6334519;22;20166;-73
2022/08/17 04:35:57;;;;;;;11.87;9.00;;;;;;;22.38;60.87;96651.47;6334731;22;20173;-73
2022/08/17 04:38:28;;;;;;;12.50;8.10;;;;;;;22.04;61.93;96653.13;6345767;22;20225;-73
2022/08/17 04:43:48;;;;;;;10.57;7.87;;;;;;;22.11;61.54;96648.94;6258026;22;20548;-74
2022/08/17 04:46:19;;;;;;;12.37;8.43;;;;;;;22.14;61.32;96661.78;6343670;22;20177;-75
2022/08/17 04:48:53;;;;;;;10.13;7.83;;;;;;;22.43;60.61;96651.84;6348086;22;20612;-76
2022/08/17 04:51:24;;;;;;;9.67;7.90;;;;;;;22.74;59.99;96657.56;6348869;22;20165;-77
2022/08/17 04:53:54;;;;;;;11.50;8.00;;;;;;;23.01;59.48;96653.94;6324732;22;20509;-75
2022/08/17 04:56:25;;;;;;;9.37;7.77;;;;;;;23.16;59.31;96647.91;6355242;22;20156;-74
2022/08/17 04:58:57;;;;;;;8.63;7.83;;;;;;;23.60;58.12;96667.16;6355010;22;20328;-76
2022/08/17 05:01:26;;;;;;;9.97;8.47;;;;;;;23.44;58.46;96665.28;6342454;22;20178;-77
2022/08/17 05:03:57;;;;;;;11.13;8.47;;;;;;;23.76;57.83;96661.91;6310179;22;20458;-77
2022/08/17 05:06:29;;;;;;;9.40;7.87;;;;;;;23.71;58.16;96652.81;6336992;22;20163;-75
2022/08/17 05:08:58;;;;;;;9.17;7.83;;;;;;;23.56;58.59;96665.81;6339183;22;20173;-74
2022/08/17 05:11:27;;;;;;;11.23;7.73;;;;;;;23.46;59.08;96659.81;6331837;22;20161;-76
2022/08/17 05:13:57;;;;;;;8.73;7.23;;;;;;;23.49;58.65;96654.25;6333403;22;20164;-74
2022/08/17 05:16:26;;;;;;;9.70;8.27;;;;;;;23.59;59.14;96665.50;6304332;22;20181;-75
2022/08/17 05:18:55;;;;;;;10.13;7.13;;;;;;;23.43;58.41;96623.97;6332616;22;20207;-74
2022/08/17 05:21:22;;;;;;;10.37;7.30;;;;;;;24.13;56.78;96665.03;6332563;22;20179;-75
2022/08/17 05:23:49;;;;;;;8.00;6.63;;;;;;;24.30;55.71;96665.88;6306430;22;20160;-74
2022/08/17 05:26:24;;;;;;;14.13;7.67;;;;;;;24.71;55.76;96661.44;6305216;22;20624;-75
2022/08/17 05:28:58;;;;;;;8.13;6.97;;;;;;;25.05;54.16;96667.41;6331173;22;20221;-75
2022/08/17 05:31:29;;;;;;;8.77;6.47;;;;;;;25.14;54.28;96666.41;6333020;22;20167;-72
2022/08/17 05:33:56;;;;;;;6.97;6.27;;;;;;;25.44;53.67;96665.66;6332260;22;20166;-79
2022/08/17 05:36:25;;;;;;;6.73;6.03;;;;;;;25.48;53.41;96669.63;6304288;22;20204;-76
2022/08/17 05:39:13;;;;;;;7.87;7.00;;;;;;;25.58;52.85;96675.56;6332764;22;20301;-78
2022/08/17 05:41:45;;;;;;;8.73;7.47;;;;;;;25.76;52.38;96664.72;6279042;22;20170;-77
2022/08/17 05:44:15;;;;;;;7.17;6.43;;;;;;;25.80;52.52;96671.34;6305543;22;20181;-77
2022/08/17 05:46:49;;;;;;;11.93;6.50;;;;;;;25.87;51.97;96659.00;6304484;22;20178;-81
2022/08/17 05:49:23;;;;;;;6.83;5.87;;;;;;;26.14;51.23;96660.38;6332281;22;20166;-77
2022/08/17 05:52:15;;;;;;;7.77;6.20;;;;;;;26.35;49.79;96657.94;6333085;22;20170;-78
2022/08/17 05:55:12;;;;;;;10.47;7.00;;;;;;;26.55;49.88;96664.41;6303063;22;20171;-79
2022/08/17 05:57:49;;;;;;;11.07;6.77;;;;;;;26.38;50.15;96665.53;6302670;22;20251;-81
2022/08/17 06:00:24;;;;;;;6.50;5.80;;;;;;;26.32;49.73;96621.09;6332165;22;20172;-75
2022/08/17 06:03:37;;;;;;;11.70;5.90;;;;;;;26.63;48.79;96660.88;6333063;22;20171;-79
2022/08/17 06:06:39;;;;;;;12.63;6.23;;;;;;;27.05;47.13;96667.34;6333825;22;20164;-75
2022/08/17 06:09:10;;;;;;;8.27;5.50;;;;;;;27.46;46.21;96665.09;6333165;22;20159;-79
2022/08/17 06:11:53;;;;;;;8.00;6.00;;;;;;;27.55;46.47;96668.50;6331230;22;20217;-79
2022/08/17 06:14:54;;;;;;;12.40;6.13;;;;;;;27.45;45.95;96617.41;6332591;22;20170;-77
2022/08/17 06:17:23;;;;;;;11.20;6.83;;;;;;;27.99;44.46;96661.31;6303785;22;20210;-79
2022/08/17 06:20:01;;;;;;;7.53;5.70;;;;;;;28.02;44.53;96666.25;6330366;22;20354;-77
2022/08/17 06:22:33;;;;;;;7.53;6.13;;;;;;;28.26;43.89;96670.41;6332359;22;20238;-79
2022/08/17 06:25:11;;;;;;;10.67;7.50;;;;;;;28.50;43.43;96664.75;6304202;22;20168;-78
2022/08/17 06:28:03;;;;;;;12.23;8.33;;;;;;;28.72;43.84;96667.25;6303527;22;20177;-77
2022/08/17 06:30:40;;;;;;;8.60;7.10;;;;;;;28.86;42.69;96663.66;6331801;22;20490;-76
2022/08/17 06:33:34;;;;;;;10.27;6.80;;;;;;;28.96;42.02;96672.16;6330169;22;20470;-77
2022/08/17 06:36:33;;;;;;;10.57;6.90;;;;;;;28.88;41.84;96666.13;6290815;22;20281;-79
2022/08/17 06:39:25;;;;;;;9.90;6.97;;;;;;;28.74;42.32;96662.53;6303817;22;20527;-77
2022/08/17 06:42:17;;;;;;;11.13;7.37;;;;;;;28.67;42.37;96658.97;6308792;22;20199;-81
2022/08/17 06:45:18;;;;;;;7.43;5.70;;;;;;;29.00;42.35;96667.25;6331892;22;20171;-78
2022/08/17 06:48:11;;;;;;;11.60;8.40;;;;;;;29.27;40.95;96661.13;6332202;22;20163;-79
2022/08/17 06:50:52;;;;;;;9.63;6.37;;;;;;;29.29;40.76;96651.06;6302068;22;20178;-77
2022/08/17 06:53:28;;;;;;;9.20;6.60;;;;;;;29.40;40.50;96661.22;6304545;22;20235;-80
2022/08/17 06:56:03;;;;;;;12.57;6.83;;;;;;;29.50;40.86;96653.69;6330726;22;20174;-81
2022/08/17 06:58:32;;;;;;;9.77;6.47;;;;;;;29.62;40.32;96656.59;6333772;22;20658;-76
2022/08/17 07:01:07;;;;;;;11.47;7.87;;;;;;;29.90;40.50;96657.41;6333390;22;20168;-73
2022/08/17 07:03:53;;;;;;;10.10;7.77;;;;;;;30.08;40.49;96657.66;6331142;22;20193;-76
2022/08/17 07:06:25;;;;;;;9.17;5.97;;;;;;;30.17;40.53;96643.09;6332599;22;20411;-79
2022/08/17 07:09:04;;;;;;;11.37;7.43;;;;;;;30.21;41.03;96652.34;6330878;22;20167;-79
2022/08/17 07:11:49;;;;;;;10.57;7.73;;;;;;;30.25;39.96;96653.59;6331111;22;20247;-76
2022/08/17 07:14:28;;;;;;;5.40;4.90;;;;;;;30.15;40.50;96658.50;6174877;22;20244;-81
2022/08/17 07:16:58;;;;;;;8.83;5.17;;;;;;;30.24;39.85;96657.28;6303090;22;20634;-76
2022/08/17 07:19:30;;;;;;;7.57;4.60;;;;;;;30.20;38.96;96648.03;6173942;22;20251;-77
2022/08/17 07:22:15;;;;;;;6.77;4.40;;;;;;;30.17;39.58;96651.09;6303787;22;20164;-80
2022/08/17 07:24:46;;;;;;;6.27;4.10;;;;;;;30.22;38.07;96650.50;6332318;22;20224;-77
2022/08/17 07:27:17;;;;;;;6.90;4.00;;;;;;;30.02;38.31;96647.78;6332075;22;20175;-79
2022/08/17 07:29:53;;;;;;;4.63;4.07;;;;;;;29.99;38.06;96650.84;6329833;22;20262;-79
2022/08/17 07:32:30;;;;;;;5.70;3.80;;;;;;;29.84;38.01;96626.16;6332082;22;20249;-81
2022/08/17 07:35:07;;;;;;;5.97;4.47;;;;;;;30.12;39.19;96650.91;6305191;22;20165;-79
2022/08/17 07:37:41;;;;;;;5.17;4.10;;;;;;;30.26;37.19;96649.91;6331334;22;20216;-78
2022/08/17 07:40:25;;;;;;;6.13;4.40;;;;;;;30.21;37.60;96656.88;6332753;22;20193;-76
2022/08/17 07:43:25;;;;;;;5.30;4.10;;;;;;;30.37;37.35;96652.03;6304354;22;20172;-78
2022/08/17 07:49:12;;;;;;;6.60;4.53;;;;;;;30.76;37.28;96643.22;6333476;22;20170;-79
2022/08/17 07:51:42;;;;;;;6.03;3.90;;;;;;;30.60;36.43;96645.47;6332066;22;20311;-80
2022/08/17 07:54:27;;;;;;;5.13;3.77;;;;;;;30.22;36.56;96645.16;6332734;22;20166;-78
2022/08/17 07:57:11;;;;;;;5.10;4.03;;;;;;;30.18;37.29;96639.41;6305916;22;20238;-79
2022/08/17 08:00:05;;;;;;;7.20;4.10;;;;;;;30.20;37.23;96620.50;6331283;22;20194;-77
2022/08/17 08:02:42;;;;;;;6.53;4.30;;;;;;;30.38;36.83;96636.78;6307418;22;20166;-78
2022/08/17 08:05:11;;;;;;;7.23;4.63;;;;;;;30.36;36.95;96637.00;6333028;22;20559;-75
2022/08/17 08:08:23;;;;;;;5.10;3.50;;;;;;;30.60;36.82;96643.63;6331784;22;20181;-78
2022/08/17 08:11:10;;;;;;;11.00;4.23;;;;;;;30.74;35.49;96647.13;6333871;22;20257;-80
2022/08/17 08:13:44;;;;;;;4.40;4.00;;;;;;;30.71;35.89;96626.16;6305046;22;20169;-79
2022/08/17 08:16:12;;;;;;;8.40;4.53;;;;;;;30.97;34.58;96626.19;6304871;22;20163;-79
2022/08/17 08:18:45;;;;;;;5.17;4.07;;;;;;;31.10;34.48;96626.16;6333298;22;20224;-77
2022/08/17 08:21:50;;;;;;;4.73;3.50;;;;;;;30.67;35.48;96624.91;6306535;22;20162;-77
2022/08/17 08:24:38;;;;;;;4.70;4.20;;;;;;;30.64;35.90;96622.66;6336060;22;20213;-80
2022/08/17 08:27:17;;;;;;;6.50;5.20;;;;;;;30.99;35.25;96634.81;6333336;22;20250;-78
2022/08/17 08:29:52;;;;;;;9.17;5.23;;;;;;;31.23;34.59;96623.47;6303713;22;20190;-78
2022/08/17 08:32:41;;;;;;;4.27;3.47;;;;;;;31.07;35.06;96638.09;6333919;22;20204;-75
2022/08/17 08:35:48;;;;;;;5.47;3.33;;;;;;;30.71;35.04;96616.25;6332831;22;20214;-78
2022/08/17 08:38:22;;;;;;;5.93;4.20;;;;;;;30.79;34.13;96623.28;6187443;23;20258;-79
2022/08/17 08:41:25;;;;;;;5.40;4.00;;;;;;;31.19;34.20;96619.56;6205435;23;20204;-74
2022/08/17 08:44:06;;;;;;;5.03;3.80;;;;;;;30.74;34.79;96618.53;6204957;23;20170;-78
2022/08/17 08:47:03;;;;;;;6.90;4.40;;;;;;;31.09;34.16;96619.16;6177011;23;20201;-76
2022/08/17 08:49:36;;;;;;;4.97;3.60;;;;;;;30.95;33.84;96628.25;6205428;23;20173;-77
2022/08/17 08:53:02;;;;;;;6.40;3.93;;;;;;;30.81;34.45;96626.56;6182307;22;20513;-76
2022/08/17 08:55:44;;;;;;;7.60;4.20;;;;;;;31.10;34.50;96618.13;6205214;23;20170;-77
2022/08/17 08:58:20;;;;;;;4.70;4.17;;;;;;;31.37;33.74;96618.91;6203970;23;20249;-77
2022/08/17 09:01:30;;;;;;;7.57;4.07;;;;;;;31.56;33.26;96610.03;6204493;22;20166;-79
2022/08/17 09:04:34;;;;;;;8.93;4.07;;;;;;;31.32;33.79;96614.97;6157260;23;20204;-79
2022/08/17 09:07:39;;;;;;;4.33;3.90;;;;;;;31.41;33.26;96617.50;6207708;23;20174;-78
2022/08/17 09:10:24;;;;;;;8.57;4.60;;;;;;;31.10;34.56;96615.44;6204507;22;20173;-78
2022/08/17 09:13:20;;;;;;;4.57;3.70;;;;;;;31.26;34.34;96628.41;6203610;23;20260;-77
2022/08/17 09:15:57;;;;;;;6.80;3.53;;;;;;;31.18;33.28;96615.25;6205122;23;20162;-78
2022/08/17 09:18:37;;;;;;;4.47;3.60;;;;;;;31.16;34.25;96623.47;6203553;23;20588;-78
2022/08/17 09:21:39;;;;;;;6.10;3.90;;;;;;;31.33;34.00;96622.00;6203489;23;20223;-77
2022/08/17 09:24:27;;;;;;;6.40;3.80;;;;;;;31.25;33.55;96616.03;6180896;22;20547;-78
2022/08/17 09:27:19;;;;;;;5.60;3.97;;;;;;;31.24;33.50;96623.25;6177840;23;20188;-78
2022/08/17 09:30:02;;;;;;;6.73;4.00;;;;;;;31.56;33.17;96615.38;6178024;22;20646;-79
2022/08/17 09:33:05;;;;;;;5.07;4.10;;;;;;;31.92;32.68;96627.16;6205387;22;20162;-75
2022/08/17 09:35:58;;;;;;;5.50;3.80;;;;;;;31.95;32.60;96621.44;6152943;23;20209;-79
2022/08/17 09:39:07;;;;;;;4.30;3.67;;;;;;;31.70;32.18;96614.28;6207324;23;20173;-77
2022/08/17 09:41:45;;;;;;;7.40;3.97;;;;;;;32.01;32.95;96612.53;6206527;23;20645;-76
2022/08/17 09:44:50;;;;;;;4.60;3.67;;;;;;;31.39;34.55;96636.44;6203901;23;20161;-76
2022/08/17 09:47:44;;;;;;;6.10;3.67;;;;;;;31.08;34.22;96622.84;6205156;23;20603;-76
2022/08/17 09:50:26;;;;;;;5.67;4.10;;;;;;;31.42;33.59;96625.31;6204628;23;20224;-77
2022/08/17 09:53:14;;;;;;;6.00;3.80;;;;;;;31.35;33.22;96626.34;6204048;22;20196;-75
2022/08/17 09:56:02;;;;;;;5.47;3.67;;;;;;;31.20;33.43;96621.22;6203776;23;20158;-75
2022/08/17 09:58:36;;;;;;;6.73;3.90;;;;;;;31.64;34.62;96623.16;6205015;23;20162;-77
2022/08/17 10:01:30;;;;;;;6.03;4.73;;;;;;;31.88;33.88;96625.16;6203294;23;20201;-76
2022/08/17 10:04:19;;;;;;;5.73;3.60;;;;;;;31.22;34.13;96627.19;6178200;22;20180;-76
2022/08/17 10:07:05;;;;;;;4.40;3.90;;;;;;;30.91;33.84;96627.00;6205091;23;20432;-75
2022/08/17 10:10:03;;;;;;;5.73;3.53;;;;;;;31.05;34.37;96612.59;6204178;22;21257;-76
2022/08/17 10:12:41;;;;;;;6.93;4.23;;;;;;;31.54;33.06;96609.41;6177872;22;20173;-75
2022/08/17 10:15:21;;;;;;;4.23;3.50;;;;;;;31.36;33.42;96614.59;6206288;23;20227;-77
2022/08/17 10:18:22;;;;;;;4.37;3.97;;;;;;;31.30;33.29;96617.06;6203911;23;20249;-75
2022/08/17 10:26:46;;;;;;;4.87;4.00;;;;;;;31.91;32.89;96609.47;6178763;22;20177;-77
2022/08/17 10:29:49;;;;;;;5.80;3.93;;;;;;;32.35;32.89;96595.25;6205497;23;20713;-77
2022/08/17 10:32:36;;;;;;;6.30;3.78;;;;;;;32.58;32.55;96606.22;6178787;23;20174;-78
2022/08/17 10:35:44;;;;;;;6.88;3.90;;;;;;;32.81;32.49;96594.88;6202354;23;20664;-78
2022/08/17 10:38:29;;;;;;;6.60;4.30;;;;;;;32.79;33.21;96595.13;6176816;23;20210;-75
2022/08/17 10:41:25;;;;;;;5.97;3.88;;;;;;;32.77;32.28;96583.78;6178086;22;20537;-76
2022/08/17 10:44:08;;;;;;;6.03;3.90;;;;;;;32.68;33.05;96587.81;6202977;23;20173;-75
2022/08/17 10:47:11;;;;;;;6.20;3.45;;;;;;;32.25;32.79;96594.91;6178163;23;20166;-77
2022/08/17 10:49:46;;;;;;;6.20;3.70;;;;;;;31.97;32.51;96581.03;6204376;23;20170;-76
2022/08/17 10:52:29;;;;;;;6.03;4.65;;;;;;;32.02;33.39;96590.09;6203693;23;20242;-78
2022/08/17 10:55:13;;;;;;;8.55;4.22;;;;;;;32.48;32.82;96589.78;6178431;23;20189;-77
2022/08/17 10:57:46;;;;;;;9.17;5.60;;;;;;;32.23;33.02;96596.13;6204519;23;20182;-77
2022/08/17 11:00:39;;;;;;;6.43;4.03;;;;;;;32.23;33.21;96583.56;6178749;23;20573;-76
2022/08/17 11:03:20;;;;;;;4.60;3.75;;;;;;;32.07;32.55;96592.09;6205199;23;20268;-76
2022/08/17 11:06:36;;;;;;;8.73;3.77;;;;;;;32.02;32.68;96590.09;6179873;23;20162;-81
2022/08/17 11:09:40;;;;;;;4.87;3.77;;;;;;;31.69;32.62;96583.19;6204337;23;20690;-76
2022/08/17 11:12:30;;;;;;;5.43;3.90;;;;;;;32.19;32.77;96568.13;6206986;22;20617;-75
2022/08/17 11:15:13;;;;;;;8.10;4.00;;;;;;;32.17;32.61;96581.72;6180396;23;20698;-76
2022/08/17 11:18:05;;;;;;;4.93;3.57;;;;;;;32.13;33.24;96574.34;6206644;23;20161;-75
2022/08/17 11:21:00;;;;;;;4.35;3.90;;;;;;;32.15;32.30;96564.25;6207275;23;20193;-78
2022/08/17 11:23:44;;;;;;;4.50;4.00;;;;;;;32.48;32.28;96549.56;6159794;23;20178;-78
2022/08/17 11:26:29;;;;;;;4.97;3.45;;;;;;;32.57;31.78;96566.22;6207059;23;20161;-78
2022/08/17 11:29:08;;;;;;;4.25;3.85;;;;;;;32.10;32.99;96564.88;6184030;23;20550;-76
2022/08/17 11:31:42;;;;;;;4.45;3.63;;;;;;;32.20;32.83;96559.03;6205959;23;20215;-77
2022/08/17 11:34:14;;;;;;;6.13;4.33;;;;;;;32.40;33.23;96560.53;6179338;23;20636;-76
2022/08/17 11:37:32;;;;;;;4.75;3.78;;;;;;;32.51;32.86;96556.38;6206680;23;20193;-78
2022/08/17 11:40:06;;;;;;;4.68;4.07;;;;;;;32.91;32.39;96564.91;6207640;23;20206;-78
2022/08/17 11:42:36;;;;;;;4.35;3.90;;;;;;;32.62;31.77;96577.13;6209026;23;20614;-76
2022/08/17 11:45:39;;;;;;;5.50;4.05;;;;;;;31.99;32.82;96573.59;6206152;23;20624;-77
2022/08/17 11:51:32;;;;;;;5.60;3.75;;;;;;;32.40;32.23;96549.81;6207305;22;20168;-77
2022/08/17 11:54:05;;;;;;;4.53;3.95;;;;;;;32.38;32.65;96556.41;6206144;23;20161;-77
2022/08/17 11:56:52;;;;;;;4.35;3.58;;;;;;;32.64;31.75;96540.19;6205230;23;20254;-77
2022/08/17 11:59:31;;;;;;;7.90;3.92;;;;;;;32.30;32.40;96562.06;6180536;22;20647;-76
2022/08/17 12:02:01;;;;;;;6.13;4.00;;;;;;;32.13;32.03;96544.88;6205366;23;20471;-77
2022/08/17 12:04:33;;;;;;;5.25;3.88;;;;;;;32.57;31.43;96540.22;6180317;23;20169;-77
2022/08/17 12:07:06;;;;;;;5.65;3.70;;;;;;;32.86;30.43;96550.28;6205353;23;20250;-77
2022/08/17 12:09:42;;;;;;;6.68;3.45;;;;;;;32.85;30.43;96556.69;6206124;23;20172;-76
2022/08/17 12:12:15;;;;;;;3.55;3.25;;;;;;;32.42;30.40;96504.03;6207092;23;20219;-77
2022/08/17 12:15:06;;;;;;;4.15;3.60;;;;;;;32.69;30.36;96543.81;6203305;23;20681;-77
2022/08/17 12:17:38;;;;;;;4.88;3.75;;;;;;;32.55;29.85;96546.84;6207290;23;20173;-78
2022/08/17 12:20:23;;;;;;;3.70;3.40;;;;;;;32.67;30.69;96537.88;6179463;23;20284;-77
2022/08/17 12:23:29;;;;;;;4.13;3.63;;;;;;;32.92;30.96;96540.50;6204674;23;20166;-77
2022/08/17 12:26:06;;;;;;;5.88;3.97;;;;;;;32.97;30.23;96554.09;6179202;23;20178;-75
2022/08/17 12:28:56;;;;;;;4.15;3.75;;;;;;;32.89;31.41;96544.47;6177583;23;20177;-77
2022/08/17 12:31:33;;;;;;;3.85;3.45;;;;;;;33.11;30.18;96544.91;6179242;23;20210;-78
2022/08/17 12:34:03;;;;;;;4.57;3.90;;;;;;;33.31;29.57;96541.97;6204669;23;20193;-77
2022/08/17 12:36:32;;;;;;;5.32;4.07;;;;;;;33.30;30.16;96529.63;6281727;22;20202;-76
2022/08/17 12:39:06;;;;;;;5.47;4.15;;;;;;;33.23;30.29;96540.44;6205310;23;20162;-76
2022/08/17 12:41:46;;;;;;;3.95;3.63;;;;;;;33.21;30.28;96541.69;6177599;23;20189;-75
2022/08/17 12:44:28;;;;;;;4.85;3.67;;;;;;;33.24;30.14;96530.53;6204978;22;20265;-75
2022/08/17 12:46:55;;;;;;;4.93;3.95;;;;;;;33.20;30.03;96540.84;6205126;22;20177;-76
2022/08/17 12:49:36;;;;;;;4.38;3.78;;;;;;;32.72;29.87;96526.47;6151305;23;20185;-76